sensor_id;sensor_type;location;lat;lon;timestamp;pressure;altitude;pressure_sealevel;temperature;humidity
74675;BME280;63200;48.810;12.352;2023-12-20T00:02:21;97459.06;;;1.06;100.00
74675;BME280;63200;48.810;12.352;2023-12-20T00:04:46;97457.13;;;1.13;100.00
74675;BME280;63200;48.810;12.352;2023-12-20T00:07:11;97465.38;;;1.12;100.00
74675;BME280;63200;48.810;12.352;2023-12-20T00:09:37;97456.53;;;1.11;100.00
74675;BME280;63200;48.810;12.352;2023-12-20T00:12:02;97457.13;;;1.13;100.00
74675;BME280;63200;48.810;12.352;2023-12-20T00:14:27;97407.09;;;0.83;100.00
74675;BME280;63200;48.810;12.352;2023-12-20T00:16:53;97447.41;;;1.19;100.00
74675;BME280;63200;48.810;12.352;2023-12-20T00:19:18;97438.47;;;1.25;100.00
74675;BME280;63200;48.810;12.352;2023-12-20T00:21:43;97440.75;;;1.22;100.00
74675;BME280;63200;48.810;12.352;2023-12-20T00:24:08;97452.88;;;1.24;100.00
74675;BME280;63200;48.810;12.352;2023-12-20T00:26:34;97444.84;;;1.24;100.00
74675;BME280;63200;48.810;12.352;2023-12-20T00:28:59;97453.94;;;1.23;100.00
74675;BME280;63200;48.810;12.352;2023-12-20T00:31:24;97448.34;;;1.25;100.00
74675;BME280;63200;48.810;12.352;2023-12-20T00:33:50;97446.25;;;1.27;100.00
74675;BME280;63200;48.810;12.352;2023-12-20T00:36:15;97432.44;;;1.30;100.00
74675;BME280;63200;48.810;12.352;2023-12-20T00:38:40;97414.31;;;1.32;100.00
74675;BME280;63200;48.810;12.352;2023-12-20T00:41:06;97423.16;;;1.32;100.00
74675;BME280;63200;48.810;12.352;2023-12-20T00:43:31;97408.72;;;1.33;100.00
74675;BME280;63200;48.810;12.352;2023-12-20T00:45:57;97408.16;;;1.31;100.00
74675;BME280;63200;48.810;12.352;2023-12-20T00:48:22;97405.94;;;1.28;100.00
74675;BME280;63200;48.810;12.352;2023-12-20T00:50:47;97336.13;;;0.88;100.00
74675;BME280;63200;48.810;12.352;2023-12-20T00:53:13;97409.78;;;1.32;100.00
74675;BME280;63200;48.810;12.352;2023-12-20T00:55:38;97386.78;;;1.13;100.00
74675;BME280;63200;48.810;12.352;2023-12-20T00:58:03;97418.38;;;1.35;100.00
74675;BME280;63200;48.810;12.352;2023-12-20T01:00:29;97407.06;;;1.51;100.00
74675;BME280;63200;48.810;12.352;2023-12-20T01:02:54;97365.69;;;1.23;100.00
74675;BME280;63200;48.810;12.352;2023-12-20T01:05:19;97418.28;;;1.41;100.00
74675;BME280;63200;48.810;12.352;2023-12-20T01:07:48;97411.81;;;1.49;100.00
74675;BME280;63200;48.810;12.352;2023-12-20T01:10:13;97405.31;;;1.57;100.00
74675;BME280;63200;48.810;12.352;2023-12-20T01:12:38;97405.94;;;1.59;100.00
74675;BME280;63200;48.810;12.352;2023-12-20T01:15:04;97416.03;;;1.57;100.00
74675;BME280;63200;48.810;12.352;2023-12-20T01:17:30;97415.78;;;1.58;100.00
74675;BME280;63200;48.810;12.352;2023-12-20T01:19:55;97392.53;;;1.59;100.00
74675;BME280;63200;48.810;12.352;2023-12-20T01:22:20;97401.84;;;1.56;100.00
74675;BME280;63200;48.810;12.352;2023-12-20T01:24:45;97409.19;;;1.61;100.00
74675;BME280;63200;48.810;12.352;2023-12-20T01:27:11;97413.63;;;1.67;100.00
74675;BME280;63200;48.810;12.352;2023-12-20T01:29:36;97421.88;;;1.65;100.00
74675;BME280;63200;48.810;12.352;2023-12-20T01:32:01;97412.69;;;1.73;100.00
74675;BME280;63200;48.810;12.352;2023-12-20T01:34:27;97398.47;;;1.61;100.00
74675;BME280;63200;48.810;12.352;2023-12-20T01:36:52;97404.44;;;1.75;100.00
74675;BME280;63200;48.810;12.352;2023-12-20T01:39:17;97402.81;;;1.74;100.00
74675;BME280;63200;48.810;12.352;2023-12-20T01:41:43;97384.53;;;1.59;100.00
74675;BME280;63200;48.810;12.352;2023-12-20T01:44:08;97388.22;;;1.58;100.00
74675;BME280;63200;48.810;12.352;2023-12-20T01:46:34;97394.03;;;1.55;100.00
74675;BME280;63200;48.810;12.352;2023-12-20T01:48:59;97385.78;;;1.56;100.00
74675;BME280;63200;48.810;12.352;2023-12-20T01:51:25;97384.59;;;1.52;100.00
74675;BME280;63200;48.810;12.352;2023-12-20T01:53:54;97387.41;;;1.57;100.00
74675;BME280;63200;48.810;12.352;2023-12-20T01:56:20;97354.31;;;1.40;100.00
74675;BME280;63200;48.810;12.352;2023-12-20T01:58:46;97341.06;;;1.33;100.00
74675;BME280;63200;48.810;12.352;2023-12-20T02:01:12;97389.78;;;1.65;100.00
74675;BME280;63200;48.810;12.352;2023-12-20T02:03:40;97395.22;;;1.71;100.00
74675;BME280;63200;48.810;12.352;2023-12-20T02:06:07;97376.97;;;1.67;100.00
74675;BME280;63200;48.810;12.352;2023-12-20T02:08:33;97350.44;;;1.66;100.00
74675;BME280;63200;48.810;12.352;2023-12-20T02:10:59;97369.75;;;1.80;100.00
74675;BME280;63200;48.810;12.352;2023-12-20T02:13:25;97368.25;;;1.72;100.00
74675;BME280;63200;48.810;12.352;2023-12-20T02:15:51;97366.03;;;1.81;100.00
74675;BME280;63200;48.810;12.352;2023-12-20T02:18:17;97363.13;;;1.82;100.00
74675;BME280;63200;48.810;12.352;2023-12-20T02:20:42;97355.69;;;1.85;100.00
74675;BME280;63200;48.810;12.352;2023-12-20T02:23:07;97353.84;;;1.97;100.00
74675;BME280;63200;48.810;12.352;2023-12-20T02:25:33;97358.97;;;1.98;100.00
74675;BME280;63200;48.810;12.352;2023-12-20T02:27:58;97356.97;;;1.94;100.00
74675;BME280;63200;48.810;12.352;2023-12-20T02:30:23;97342.06;;;1.74;100.00
74675;BME280;63200;48.810;12.352;2023-12-20T02:32:49;97347.66;;;1.85;100.00
74675;BME280;63200;48.810;12.352;2023-12-20T02:35:15;97347.53;;;1.79;100.00
74675;BME280;63200;48.810;12.352;2023-12-20T02:37:40;97340.56;;;1.90;100.00
74675;BME280;63200;48.810;12.352;2023-12-20T02:40:06;97328.31;;;1.82;100.00
74675;BME280;63200;48.810;12.352;2023-12-20T02:42:31;97275.84;;;1.46;100.00
74675;BME280;63200;48.810;12.352;2023-12-20T02:44:57;97316.13;;;1.75;100.00
74675;BME280;63200;48.810;12.352;2023-12-20T02:47:22;97327.03;;;1.61;100.00
74675;BME280;63200;48.810;12.352;2023-12-20T02:49:47;97326.69;;;1.58;100.00
74675;BME280;63200;48.810;12.352;2023-12-20T02:52:13;97308.63;;;1.41;100.00
74675;BME280;63200;48.810;12.352;2023-12-20T02:54:38;97319.00;;;1.61;100.00
74675;BME280;63200;48.810;12.352;2023-12-20T02:57:03;97317.16;;;1.62;100.00
74675;BME280;63200;48.810;12.352;2023-12-20T02:59:29;97317.41;;;1.72;100.00
74675;BME280;63200;48.810;12.352;2023-12-20T03:01:54;97317.41;;;1.84;100.00
74675;BME280;63200;48.810;12.352;2023-12-20T03:04:19;97305.53;;;1.68;100.00
74675;BME280;63200;48.810;12.352;2023-12-20T03:06:45;97304.94;;;1.66;100.00
74675;BME280;63200;48.810;12.352;2023-12-20T03:09:10;97323.56;;;1.73;100.00
74675;BME280;63200;48.810;12.352;2023-12-20T03:11:35;97304.69;;;1.67;100.00
74675;BME280;63200;48.810;12.352;2023-12-20T03:14:01;97322.66;;;1.79;100.00
74675;BME280;63200;48.810;12.352;2023-12-20T03:16:26;97330.56;;;1.74;100.00
74675;BME280;63200;48.810;12.352;2023-12-20T03:18:51;97262.81;;;1.38;100.00
74675;BME280;63200;48.810;12.352;2023-12-20T03:21:16;97311.09;;;1.78;100.00
74675;BME280;63200;48.810;12.352;2023-12-20T03:23:42;97297.84;;;1.72;100.00
74675;BME280;63200;48.810;12.352;2023-12-20T03:26:08;97302.03;;;1.67;100.00
74675;BME280;63200;48.810;12.352;2023-12-20T03:28:34;97301.47;;;1.65;100.00
74675;BME280;63200;48.810;12.352;2023-12-20T03:30:59;97306.81;;;1.65;100.00
74675;BME280;63200;48.810;12.352;2023-12-20T03:33:25;97306.81;;;1.65;100.00
74675;BME280;63200;48.810;12.352;2023-12-20T03:35:50;97297.94;;;1.65;100.00
74675;BME280;63200;48.810;12.352;2023-12-20T03:38:15;97298.31;;;1.80;100.00
74675;BME280;63200;48.810;12.352;2023-12-20T03:40:41;97306.22;;;1.63;100.00
74675;BME280;63200;48.810;12.352;2023-12-20T03:43:06;97291.56;;;1.66;100.00
74675;BME280;63200;48.810;12.352;2023-12-20T03:45:31;97286.22;;;1.66;100.00
74675;BME280;63200;48.810;12.352;2023-12-20T03:47:56;97284.13;;;1.68;100.00
74675;BME280;63200;48.810;12.352;2023-12-20T03:50:22;97268.38;;;1.60;100.00
74675;BME280;63200;48.810;12.352;2023-12-20T03:52:48;97292.97;;;1.69;100.00
74675;BME280;63200;48.810;12.352;2023-12-20T03:55:13;97287.84;;;1.67;100.00
74675;BME280;63200;48.810;12.352;2023-12-20T03:57:39;97253.72;;;1.50;100.00
74675;BME280;63200;48.810;12.352;2023-12-20T04:00:05;97294.72;;;1.75;100.00
74675;BME280;63200;48.810;12.352;2023-12-20T04:02:34;97293.19;;;1.79;100.00
74675;BME280;63200;48.810;12.352;2023-12-20T04:04:59;97296.91;;;1.78;100.00
74675;BME280;63200;48.810;12.352;2023-12-20T04:07:24;97300.16;;;1.80;100.00
74675;BME280;63200;48.810;12.352;2023-12-20T04:09:50;97308.78;;;1.82;100.00
74675;BME280;63200;48.810;12.352;2023-12-20T04:12:15;97305.31;;;1.81;100.00
74675;BME280;63200;48.810;12.352;2023-12-20T04:14:40;97295.16;;;1.83;100.00
74675;BME280;63200;48.810;12.352;2023-12-20T04:17:05;97277.25;;;1.96;100.00
74675;BME280;63200;48.810;12.352;2023-12-20T04:19:31;97304.56;;;2.33;100.00
74675;BME280;63200;48.810;12.352;2023-12-20T04:21:56;97308.59;;;2.60;100.00
74675;BME280;63200;48.810;12.352;2023-12-20T04:24:21;97307.28;;;2.74;100.00
74675;BME280;63200;48.810;12.352;2023-12-20T04:26:47;97312.16;;;2.77;100.00
74675;BME280;63200;48.810;12.352;2023-12-20T04:29:13;97319.72;;;2.80;100.00
74675;BME280;63200;48.810;12.352;2023-12-20T04:31:38;97314.94;;;2.82;100.00
74675;BME280;63200;48.810;12.352;2023-12-20T04:34:03;97322.38;;;2.80;100.00
74675;BME280;63200;48.810;12.352;2023-12-20T04:36:29;97321.03;;;2.78;100.00
74675;BME280;63200;48.810;12.352;2023-12-20T04:38:55;97332.31;;;2.80;100.00
74675;BME280;63200;48.810;12.352;2023-12-20T04:41:20;97332.44;;;2.73;100.00
74675;BME280;63200;48.810;12.352;2023-12-20T04:43:45;97339.19;;;2.76;100.00
74675;BME280;63200;48.810;12.352;2023-12-20T04:46:10;97330.25;;;2.70;100.00
74675;BME280;63200;48.810;12.352;2023-12-20T04:48:36;97322.56;;;2.62;100.00
74675;BME280;63200;48.810;12.352;2023-12-20T04:51:01;97333.63;;;2.65;100.00
74675;BME280;63200;48.810;12.352;2023-12-20T04:53:27;97317.34;;;2.55;100.00
74675;BME280;63200;48.810;12.352;2023-12-20T04:55:52;97330.69;;;2.67;100.00
74675;BME280;63200;48.810;12.352;2023-12-20T04:58:18;97336.56;;;2.64;100.00
74675;BME280;63200;48.810;12.352;2023-12-20T05:00:44;97337.03;;;2.61;100.00
74675;BME280;63200;48.810;12.352;2023-12-20T05:03:09;97325.81;;;2.64;100.00
74675;BME280;63200;48.810;12.352;2023-12-20T05:05:35;97333.63;;;2.65;100.00
74675;BME280;63200;48.810;12.352;2023-12-20T05:08:01;97331.66;;;2.61;100.00
74675;BME280;63200;48.810;12.352;2023-12-20T05:10:26;97337.84;;;2.61;100.00
74675;BME280;63200;48.810;12.352;2023-12-20T05:12:53;97331.66;;;2.61;100.00
74675;BME280;63200;48.810;12.352;2023-12-20T05:15:18;97338.06;;;2.60;100.00
74675;BME280;63200;48.810;12.352;2023-12-20T05:17:43;97339.13;;;2.59;100.00
74675;BME280;63200;48.810;12.352;2023-12-20T05:20:09;97340.66;;;2.55;100.00
74675;BME280;63200;48.810;12.352;2023-12-20T05:22:34;97342.28;;;2.56;100.00
74675;BME280;63200;48.810;12.352;2023-12-20T05:24:59;97339.59;;;2.56;100.00
74675;BME280;63200;48.810;12.352;2023-12-20T05:27:24;97341.44;;;2.55;100.00
74675;BME280;63200;48.810;12.352;2023-12-20T05:29:50;97355.56;;;2.62;100.00
74675;BME280;63200;48.810;12.352;2023-12-20T05:32:15;97354.16;;;2.60;100.00
74675;BME280;63200;48.810;12.352;2023-12-20T05:34:41;97370.00;;;2.61;100.00
74675;BME280;63200;48.810;12.352;2023-12-20T05:37:06;97371.63;;;2.62;100.00
74675;BME280;63200;48.810;12.352;2023-12-20T05:39:31;97373.47;;;2.62;100.00
74675;BME280;63200;48.810;12.352;2023-12-20T05:41:56;97374.88;;;2.64;100.00
74675;BME280;63200;48.810;12.352;2023-12-20T05:44:22;97376.50;;;2.65;100.00
74675;BME280;63200;48.810;12.352;2023-12-20T05:46:47;97342.66;;;2.47;100.00
74675;BME280;63200;48.810;12.352;2023-12-20T05:49:12;97381.63;;;2.67;100.00
74675;BME280;63200;48.810;12.352;2023-12-20T05:51:39;97376.06;;;2.69;100.00
74675;BME280;63200;48.810;12.352;2023-12-20T05:54:04;97381.75;;;2.72;100.00
74675;BME280;63200;48.810;12.352;2023-12-20T05:56:30;97381.19;;;2.70;100.00
74675;BME280;63200;48.810;12.352;2023-12-20T05:58:56;97383.84;;;2.70;100.00
74675;BME280;63200;48.810;12.352;2023-12-20T06:01:21;97379.78;;;2.67;100.00
74675;BME280;63200;48.810;12.352;2023-12-20T06:03:46;97381.63;;;2.67;100.00
74675;BME280;63200;48.810;12.352;2023-12-20T06:06:12;97385.94;;;2.68;100.00
74675;BME280;63200;48.810;12.352;2023-12-20T06:08:40;97396.66;;;2.68;100.00
74675;BME280;63200;48.810;12.352;2023-12-20T06:11:06;97391.31;;;2.68;100.00
74675;BME280;63200;48.810;12.352;2023-12-20T06:13:31;97408.44;;;2.67;100.00
74675;BME280;63200;48.810;12.352;2023-12-20T06:15:57;97397.94;;;2.65;100.00
74675;BME280;63200;48.810;12.352;2023-12-20T06:18:22;97400.41;;;2.67;100.00
74675;BME280;63200;48.810;12.352;2023-12-20T06:20:48;97404.94;;;2.66;100.00
74675;BME280;63200;48.810;12.352;2023-12-20T06:23:13;97406.00;;;2.65;100.00
74675;BME280;63200;48.810;12.352;2023-12-20T06:25:38;97409.28;;;2.67;100.00
74675;BME280;63200;48.810;12.352;2023-12-20T06:28:04;97408.22;;;2.69;100.00
74675;BME280;63200;48.810;12.352;2023-12-20T06:30:29;97410.06;;;2.68;100.00
74675;BME280;63200;48.810;12.352;2023-12-20T06:32:55;97414.63;;;2.67;100.00
74675;BME280;63200;48.810;12.352;2023-12-20T06:35:22;97337.66;;;2.15;100.00
74675;BME280;63200;48.810;12.352;2023-12-20T06:37:48;97417.63;;;2.71;100.00
74675;BME280;63200;48.810;12.352;2023-12-20T06:40:13;97392.97;;;2.57;100.00
74675;BME280;63200;48.810;12.352;2023-12-20T06:42:38;97425.22;;;2.74;100.00
74675;BME280;63200;48.810;12.352;2023-12-20T06:45:04;97437.78;;;2.74;100.00
74675;BME280;63200;48.810;12.352;2023-12-20T06:47:29;97445.03;;;2.73;100.00
74675;BME280;63200;48.810;12.352;2023-12-20T06:49:54;97442.94;;;2.75;100.00
74675;BME280;63200;48.810;12.352;2023-12-20T06:52:20;97444.91;;;2.80;100.00
74675;BME280;63200;48.810;12.352;2023-12-20T06:54:45;97429.41;;;2.82;100.00
74675;BME280;63200;48.810;12.352;2023-12-20T06:57:10;97436.06;;;2.79;100.00
74675;BME280;63200;48.810;12.352;2023-12-20T06:59:42;97432.91;;;2.82;100.00
74675;BME280;63200;48.810;12.352;2023-12-20T07:02:08;97380.16;;;2.47;100.00
74675;BME280;63200;48.810;12.352;2023-12-20T07:04:34;97437.47;;;2.82;100.00
74675;BME280;63200;48.810;12.352;2023-12-20T07:06:59;97426.63;;;2.65;100.00
74675;BME280;63200;48.810;12.352;2023-12-20T07:09:26;97453.53;;;2.94;100.00
74675;BME280;63200;48.810;12.352;2023-12-20T07:11:52;97471.47;;;2.93;100.00
74675;BME280;63200;48.810;12.352;2023-12-20T07:14:17;97467.41;;;2.91;100.00
74675;BME280;63200;48.810;12.352;2023-12-20T07:16:43;97435.34;;;2.72;100.00
74675;BME280;63200;48.810;12.352;2023-12-20T07:19:08;97472.63;;;2.97;100.00
74675;BME280;63200;48.810;12.352;2023-12-20T07:21:33;97469.38;;;2.95;100.00
74675;BME280;63200;48.810;12.352;2023-12-20T07:23:58;97478.00;;;2.97;100.00
74675;BME280;63200;48.810;12.352;2023-12-20T07:26:24;97475.91;;;2.99;100.00
74675;BME280;63200;48.810;12.352;2023-12-20T07:28:49;97479.38;;;3.00;100.00
74675;BME280;63200;48.810;12.352;2023-12-20T07:31:18;97440.59;;;2.67;100.00
74675;BME280;63200;48.810;12.352;2023-12-20T07:33:43;97477.75;;;2.99;100.00
74675;BME280;63200;48.810;12.352;2023-12-20T07:36:09;97488.94;;;3.08;100.00
74675;BME280;63200;48.810;12.352;2023-12-20T07:38:34;97479.16;;;3.02;100.00
74675;BME280;63200;48.810;12.352;2023-12-20T07:40:59;97481.38;;;3.05;100.00
74675;BME280;63200;48.810;12.352;2023-12-20T07:43:25;97497.81;;;3.08;100.00
74675;BME280;63200;48.810;12.352;2023-12-20T07:45:50;97501.31;;;3.09;100.00
74675;BME280;63200;48.810;12.352;2023-12-20T07:48:15;97504.56;;;3.11;100.00
74675;BME280;63200;48.810;12.352;2023-12-20T07:50:41;97507.59;;;3.14;100.00
74675;BME280;63200;48.810;12.352;2023-12-20T07:53:07;97519.38;;;3.13;100.00
74675;BME280;63200;48.810;12.352;2023-12-20T07:55:32;97488.13;;;3.07;100.00
74675;BME280;63200;48.810;12.352;2023-12-20T07:57:59;97503.06;;;3.15;100.00
74675;BME280;63200;48.810;12.352;2023-12-20T08:00:25;97505.38;;;3.11;100.00
74675;BME280;63200;48.810;12.352;2023-12-20T08:02:50;97509.72;;;3.12;100.00
74675;BME280;63200;48.810;12.352;2023-12-20T08:05:15;97512.59;;;3.11;100.00
74675;BME280;63200;48.810;12.352;2023-12-20T08:07:40;97519.38;;;3.13;100.00
74675;BME280;63200;48.810;12.352;2023-12-20T08:10:06;97525.31;;;3.15;100.00
74675;BME280;63200;48.810;12.352;2023-12-20T08:12:32;97507.97;;;3.06;100.00
74675;BME280;63200;48.810;12.352;2023-12-20T08:14:58;97515.66;;;3.03;100.00
74675;BME280;63200;48.810;12.352;2023-12-20T08:17:24;97526.97;;;3.16;100.00
74675;BME280;63200;48.810;12.352;2023-12-20T08:19:49;97529.97;;;3.20;100.00
74675;BME280;63200;48.810;12.352;2023-12-20T08:22:14;97524.03;;;3.18;100.00
74675;BME280;63200;48.810;12.352;2023-12-20T08:24:39;97508.56;;;3.08;100.00
74675;BME280;63200;48.810;12.352;2023-12-20T08:27:05;97522.16;;;3.19;100.00
74675;BME280;63200;48.810;12.352;2023-12-20T08:29:30;97511.91;;;3.15;100.00
74675;BME280;63200;48.810;12.352;2023-12-20T08:31:56;97530.09;;;3.25;100.00
74675;BME280;63200;48.810;12.352;2023-12-20T08:34:22;97529.03;;;3.26;100.00
74675;BME280;63200;48.810;12.352;2023-12-20T08:36:48;97531.25;;;3.29;100.00
74675;BME280;63200;48.810;12.352;2023-12-20T08:39:13;97528.56;;;3.29;100.00
74675;BME280;63200;48.810;12.352;2023-12-20T08:41:39;97532.88;;;3.30;100.00
74675;BME280;63200;48.810;12.352;2023-12-20T08:44:04;97534.38;;;3.38;100.00
74675;BME280;63200;48.810;12.352;2023-12-20T08:46:29;97541.03;;;3.36;100.00
74675;BME280;63200;48.810;12.352;2023-12-20T08:48:55;97534.88;;;3.35;100.00
74675;BME280;63200;48.810;12.352;2023-12-20T08:51:20;97539.97;;;3.48;100.00
74675;BME280;63200;48.810;12.352;2023-12-20T08:53:48;97527.13;;;3.50;100.00
74675;BME280;63200;48.810;12.352;2023-12-20T08:56:13;97535.63;;;3.59;100.00
74675;BME280;63200;48.810;12.352;2023-12-20T08:58:39;97528.63;;;3.58;100.00
74675;BME280;63200;48.810;12.352;2023-12-20T09:01:04;97530.16;;;3.54;100.00
74675;BME280;63200;48.810;12.352;2023-12-20T09:03:29;97533.88;;;3.53;100.00
74675;BME280;63200;48.810;12.352;2023-12-20T09:05:55;97524.06;;;3.59;100.00
74675;BME280;63200;48.810;12.352;2023-12-20T09:08:20;97506.38;;;3.46;100.00
74675;BME280;63200;48.810;12.352;2023-12-20T09:10:45;97534.44;;;3.67;100.00
74675;BME280;63200;48.810;12.352;2023-12-20T09:13:11;97529.16;;;3.72;100.00
74675;BME280;63200;48.810;12.352;2023-12-20T09:15:36;97527.78;;;3.70;100.00
74675;BME280;63200;48.810;12.352;2023-12-20T09:18:02;97478.63;;;3.40;100.00
74675;BME280;63200;48.810;12.352;2023-12-20T09:20:27;97528.34;;;3.72;100.00
74675;BME280;63200;48.810;12.352;2023-12-20T09:22:53;97528.81;;;3.69;100.00
74675;BME280;63200;48.810;12.352;2023-12-20T09:25:18;97526.47;;;3.72;100.00
74675;BME280;63200;48.810;12.352;2023-12-20T09:27:43;97524.50;;;3.67;100.00
74675;BME280;63200;48.810;12.352;2023-12-20T09:30:09;97535.09;;;3.74;100.00
74675;BME280;63200;48.810;12.352;2023-12-20T09:32:34;97527.03;;;3.74;100.00
74675;BME280;63200;48.810;12.352;2023-12-20T09:35:00;97519.72;;;3.70;100.00
74675;BME280;63200;48.810;12.352;2023-12-20T09:37:26;97521.00;;;3.67;100.00
74675;BME280;63200;48.810;12.352;2023-12-20T09:39:52;97526.47;;;3.72;100.00
74675;BME280;63200;48.810;12.352;2023-12-20T09:42:23;97484.00;;;3.40;100.00
74675;BME280;63200;48.810;12.352;2023-12-20T09:44:49;97503.66;;;3.58;100.00
74675;BME280;63200;48.810;12.352;2023-12-20T09:47:15;97520.03;;;3.85;100.00
74675;BME280;63200;48.810;12.352;2023-12-20T09:49:42;97523.03;;;3.89;100.00
74675;BME280;63200;48.810;12.352;2023-12-20T09:52:09;97528.88;;;3.86;100.00
74675;BME280;63200;48.810;12.352;2023-12-20T09:54:36;97525.94;;;3.87;100.00
74675;BME280;63200;48.810;12.352;2023-12-20T09:57:01;97518.63;;;3.82;100.00
74675;BME280;63200;48.810;12.352;2023-12-20T09:59:27;97524.00;;;3.82;100.00
74675;BME280;63200;48.810;12.352;2023-12-20T10:01:55;97518.03;;;3.80;100.00
74675;BME280;63200;48.810;12.352;2023-12-20T10:04:21;97524.47;;;3.79;100.00
74675;BME280;63200;48.810;12.352;2023-12-20T10:06:47;97476.13;;;3.50;100.00
74675;BME280;63200;48.810;12.352;2023-12-20T10:09:13;97508.25;;;3.74;100.00
74675;BME280;63200;48.810;12.352;2023-12-20T10:11:39;97512.66;;;3.80;100.00
74675;BME280;63200;48.810;12.352;2023-12-20T10:14:06;97488.78;;;3.67;100.00
74675;BME280;63200;48.810;12.352;2023-12-20T10:16:32;97512.88;;;3.91;100.00
74675;BME280;63200;48.810;12.352;2023-12-20T10:18:59;97467.97;;;3.74;100.00
74675;BME280;63200;48.810;12.352;2023-12-20T10:21:25;97514.44;;;4.04;100.00
74675;BME280;63200;48.810;12.352;2023-12-20T10:23:55;97464.78;;;3.60;100.00
74675;BME280;63200;48.810;12.352;2023-12-20T10:26:27;97507.09;;;3.99;100.00
74675;BME280;63200;48.810;12.352;2023-12-20T10:28:56;97505.75;;;4.13;100.00
74675;BME280;63200;48.810;12.352;2023-12-20T10:31:29;97510.31;;;4.30;100.00
74675;BME280;63200;48.810;12.352;2023-12-20T10:33:58;97494.69;;;4.44;100.00
74675;BME280;63200;48.810;12.352;2023-12-20T10:36:26;97498.00;;;4.51;100.00
74675;BME280;63200;48.810;12.352;2023-12-20T10:38:55;97461.38;;;4.28;100.00
74675;BME280;63200;48.810;12.352;2023-12-20T10:41:32;97475.88;;;4.27;100.00
74675;BME280;63200;48.810;12.352;2023-12-20T10:44:02;97497.72;;;4.47;100.00
74675;BME280;63200;48.810;12.352;2023-12-20T10:46:28;97497.88;;;4.41;100.00
74675;BME280;63200;48.810;12.352;2023-12-20T10:48:56;97493.22;;;4.36;100.00
74675;BME280;63200;48.810;12.352;2023-12-20T10:51:22;97494.59;;;4.39;100.00
74675;BME280;63200;48.810;12.352;2023-12-20T10:53:48;97497.03;;;4.23;100.00
74675;BME280;63200;48.810;12.352;2023-12-20T10:56:19;97427.41;;;3.88;100.00
74675;BME280;63200;48.810;12.352;2023-12-20T10:58:45;97487.34;;;4.39;100.00
74675;BME280;63200;48.810;12.352;2023-12-20T11:01:16;97480.53;;;4.31;100.00
74675;BME280;63200;48.810;12.352;2023-12-20T11:03:51;97477.25;;;4.29;100.00
74675;BME280;63200;48.810;12.352;2023-12-20T11:08:50;97474.56;;;4.29;100.00
74675;BME280;63200;48.810;12.352;2023-12-20T11:13:57;97486.78;;;4.37;100.00
74675;BME280;63200;48.810;12.352;2023-12-20T11:16:24;97486.19;;;4.35;100.00
74675;BME280;63200;48.810;12.352;2023-12-20T11:18:50;97487.13;;;4.41;100.00
74675;BME280;63200;48.810;12.352;2023-12-20T11:21:16;97480.91;;;4.40;100.00
74675;BME280;63200;48.810;12.352;2023-12-20T11:23:42;97480.66;;;4.59;100.00
74675;BME280;63200;48.810;12.352;2023-12-20T11:26:07;97473.75;;;4.46;100.00
74675;BME280;63200;48.810;12.352;2023-12-20T11:28:33;97467.09;;;4.31;100.00
74675;BME280;63200;48.810;12.352;2023-12-20T11:31:00;97463.81;;;4.12;100.00
74675;BME280;63200;48.810;12.352;2023-12-20T11:33:30;97409.97;;;3.73;100.00
74675;BME280;63200;48.810;12.352;2023-12-20T11:35:57;97465.69;;;4.12;100.00
74675;BME280;63200;48.810;12.352;2023-12-20T11:38:23;97455.28;;;4.15;100.00
74675;BME280;63200;48.810;12.352;2023-12-20T11:40:49;97444.59;;;4.21;100.00
74675;BME280;63200;48.810;12.352;2023-12-20T11:43:37;97440.38;;;4.25;100.00
74675;BME280;63200;48.810;12.352;2023-12-20T11:46:07;97447.22;;;4.15;100.00
74675;BME280;63200;48.810;12.352;2023-12-20T11:48:35;97449.81;;;4.10;100.00
74675;BME280;63200;48.810;12.352;2023-12-20T11:51:00;97450.63;;;4.28;100.00
74675;BME280;63200;48.810;12.352;2023-12-20T11:53:25;97458.59;;;4.40;100.00
74675;BME280;63200;48.810;12.352;2023-12-20T11:55:51;97456.72;;;4.57;100.00
74675;BME280;63200;48.810;12.352;2023-12-20T11:58:16;97455.50;;;4.65;100.00
74675;BME280;63200;48.810;12.352;2023-12-20T12:00:42;97456.19;;;4.77;100.00
74675;BME280;63200;48.810;12.352;2023-12-20T12:03:14;97452.94;;;4.75;100.00
74675;BME280;63200;48.810;12.352;2023-12-20T12:05:40;97450.75;;;4.72;100.00
74675;BME280;63200;48.810;12.352;2023-12-20T12:08:05;97448.63;;;4.74;100.00
74675;BME280;63200;48.810;12.352;2023-12-20T12:10:31;97450.34;;;5.03;100.00
74675;BME280;63200;48.810;12.352;2023-12-20T12:12:56;97450.03;;;5.43;100.00
74675;BME280;63200;48.810;12.352;2023-12-20T12:15:21;97448.38;;;5.64;100.00
74675;BME280;63200;48.810;12.352;2023-12-20T12:17:54;97449.56;;;6.66;100.00
74675;BME280;63200;48.810;12.352;2023-12-20T12:20:20;97440.72;;;7.24;96.31
74675;BME280;63200;48.810;12.352;2023-12-20T12:22:45;97433.50;;;6.87;88.65
74675;BME280;63200;48.810;12.352;2023-12-20T12:25:13;97425.00;;;7.21;89.62
74675;BME280;63200;48.810;12.352;2023-12-20T12:27:42;97394.50;;;7.15;86.24
74675;BME280;63200;48.810;12.352;2023-12-20T12:30:08;97430.53;;;7.62;83.07
74675;BME280;63200;48.810;12.352;2023-12-20T12:32:34;97432.81;;;8.06;81.60
74675;BME280;63200;48.810;12.352;2023-12-20T12:35:00;97433.28;;;7.77;80.98
74675;BME280;63200;48.810;12.352;2023-12-20T12:37:25;97428.75;;;8.55;75.98
74675;BME280;63200;48.810;12.352;2023-12-20T12:39:53;97390.03;;;7.67;76.98
74675;BME280;63200;48.810;12.352;2023-12-20T12:42:19;97424.16;;;7.10;82.92
74675;BME280;63200;48.810;12.352;2023-12-20T12:44:45;97434.44;;;6.65;89.89
74675;BME280;63200;48.810;12.352;2023-12-20T12:47:11;97432.94;;;6.42;87.87
74675;BME280;63200;48.810;12.352;2023-12-20T12:49:36;97434.69;;;7.11;81.77